Meteo Giornale » Osservazioni meteo Italia » Firenze-Peretola

ore: 02:50 - Osservazioni Meteo Firenze-Peretola
Lat. 43° 48' N Lon. 11° 12' E Alt. 40 metri s.l.m.

sereno Europe/Rome

8 °C

Sereno

Temp. 24 Ore

5 °C

25 °C

Nord

5.5 Km/h

Dew point 4 °C

Umidità 75 %

Visibilità  10 Km

Il sole sorge alle ore 06:07

Il sole tramonta alle ore 18:34

Data e Ora Cielo e Fenomeni T °C DP °C Um. % Pres. hPa Vis. km Vento km/h
Oggi h: 02:50 sereno Sereno 8 4 75 1018 10 N 5.5
Oggi h: 02:20 sereno Sereno 6 3 81 1018 10 E 7.4
Oggi h: 01:50 sereno Sereno 8 4 75 1019 10 N 5.5
Oggi h: 01:20 sereno Sereno 8 4 75 1019 10 N 3.7
Oggi h: 00:50 sereno Sereno 8 4 75 1019 10 E 9.3
Oggi h: 00:20 sereno Sereno 9 4 70 1019 10 N 3.7
Ieri h: 23:50 sereno Sereno 9 4 70 1019 10 E/NE 7.4
Ieri h: 23:20 sereno Sereno 9 5 75 1019 10 N 3.7
Ieri h: 22:50 sereno Sereno 11 5 66 1019 10 N 3.7
Ieri h: 22:20 sereno Sereno 11 5 66 1019 10 N 3.7
Ieri h: 21:50 sereno Sereno 14 6 58 1019 10 N 5.5
Ieri h: 21:20 sereno Sereno 14 5 54 1020 10 S 9.3
Ieri h: 20:50 sereno Sereno 14 4 50 1019 10 N 3.7
Ieri h: 20:20 sereno Sereno 15 4 47 1019 10 N 3.7
Ieri h: 19:50 sereno Sereno 16 6 51 1019 10 SO 9.3
Ieri h: 19:20 sereno Sereno 17 4 41 1019 10 SO 13
Ieri h: 18:50 sereno Sereno 18 2 34 1019 10 SO 16.7
Ieri h: 18:20 sereno Sereno 19 4 37 1018 10 SO 14.8
Ieri h: 17:50 sereno Sereno 20 5 37 1018 10 SO 16.7
Ieri h: 17:20 sereno Sereno 22 5 32 1018 10 O/SO 14.8
Ieri h: 16:50 sereno Sereno 23 4 28 1018 10 O 16.7
Ieri h: 16:20 sereno Sereno 24 4 27 1018 10 O/SO 18.5
Ieri h: 15:50 sereno Sereno 25 3 23 1018 10 O/SO 14.8
Ieri h: 15:20 sereno Sereno 24 2 23 1018 10 O 13
Ieri h: 14:50 sereno Sereno 25 4 25 1019 10 O/SO 9.3
Ieri h: 14:20 sereno Sereno 25 2 22 1019 10 O 11.1
Ieri h: 13:50 sereno Sereno 24 4 27 1019 10 O 9.3
Ieri h: 13:20 sereno Sereno 24 3 25 1020 10 N 7.4
Ieri h: 12:50 sereno Sereno 23 4 28 1020 10 N 5.5
Ieri h: 12:20 sereno Sereno 22 5 32 1021 10 N 5.5
Ieri h: 11:50 sereno Sereno 21 4 32 1021 10 O/NO 7.4
Ieri h: 11:20 sereno Sereno 21 4 32 1022 10 N 5.5
Ieri h: 10:50 sereno Sereno 19 3 34 1022 10 N 3.7
Ieri h: 10:20 sereno Sereno 18 3 36 1022 10 N 1.8
Ieri h: 09:50 sereno Sereno 16 4 44 1022 10 N 1.8
Ieri h: 09:20 sereno Sereno 14 4 50 1022 10 N 3.7
Ieri h: 08:50 sereno Sereno 13 3 50 1022 10 N 1.8
Ieri h: 08:20 sereno Sereno 11 3 57 1022 10 N 3.7
Ieri h: 07:50 sereno Sereno 10 3 61 1022 10 N 1.8
Ieri h: 07:20 sereno Sereno 8 3 70 1023 10 N 3.7
Ieri h: 06:50 sereno Sereno 5 1 75 1022 10 N 5.5
Ieri h: 06:20 sereno Sereno 5 2 80 1022 10 N 3.7
Ieri h: 05:50 sereno Sereno 6 2 75 1022 10 N 5.5
Ieri h: 05:20 sereno Sereno 6 2 75 1022 10 N 3.7
Ieri h: 04:50 sereno Sereno 5 1 75 1022 10 E/NE 7.4
Ieri h: 04:20 sereno Sereno 7 1 65 1022 10 N 3.7
Ieri h: 03:50 sereno Sereno 8 2 65 1022 10 E/SE 7.4
Ieri h: 03:20 sereno Sereno 7 2 70 1022 10 E/SE 11.1
Ieri h: 02:50 sereno Sereno 10 3 61 1022 10 E/NE 11.1